createdAt,value
2018-05-13T00:00:55.451Z,78.10
2018-05-13T00:03:22.446Z,78.70
2018-05-13T00:05:49.464Z,77.70
2018-05-13T00:08:15.731Z,78.00
2018-05-13T00:10:42.047Z,78.10
2018-05-13T00:13:08.339Z,79.00
2018-05-13T00:15:34.689Z,79.20
2018-05-13T00:18:01.952Z,79.70
2018-05-13T00:20:28.951Z,80.00
2018-05-13T00:22:55.580Z,79.30
2018-05-13T00:25:21.850Z,79.00
2018-05-13T00:27:48.186Z,78.90
2018-05-13T00:30:14.458Z,79.20
2018-05-13T00:32:41.496Z,80.30
2018-05-13T00:35:07.767Z,79.60
2018-05-13T00:37:34.046Z,79.60
2018-05-13T00:40:00.336Z,80.10
2018-05-13T00:42:27.036Z,80.20
2018-05-13T00:44:54.055Z,80.50
2018-05-13T00:47:21.071Z,80.40
2018-05-13T00:49:48.056Z,81.40
2018-05-13T00:52:14.332Z,80.60
2018-05-13T00:54:52.706Z,80.10
2018-05-13T00:57:18.995Z,79.80
2018-05-13T00:59:45.713Z,79.60
2018-05-13T01:02:11.996Z,77.30
2018-05-13T01:04:39.030Z,77.80
2018-05-13T01:07:05.640Z,77.60
2018-05-13T01:09:31.966Z,78.50
2018-05-13T01:11:58.215Z,77.70
2018-05-13T01:14:24.893Z,77.70
2018-05-13T01:16:51.175Z,78.50
2018-05-13T01:19:17.485Z,78.60
2018-05-13T01:21:44.492Z,79.50
2018-05-13T01:24:10.757Z,79.50
2018-05-13T01:26:37.415Z,80.80
2018-05-13T01:29:04.521Z,79.90
2018-05-13T01:31:30.781Z,78.50
2018-05-13T01:33:57.413Z,78.40
2018-05-13T01:36:23.683Z,78.10
2018-05-13T01:38:50.687Z,79.80
2018-05-13T01:41:17.351Z,78.90
2018-05-13T01:43:43.638Z,79.30
2018-05-13T01:46:10.701Z,78.90
2018-05-13T01:48:37.678Z,79.50
2018-05-13T01:51:04.055Z,80.20
2018-05-13T01:53:30.297Z,80.20
2018-05-13T01:55:57.346Z,78.90
2018-05-13T01:58:23.973Z,78.20
2018-05-13T02:00:50.196Z,78.10
2018-05-13T02:03:17.308Z,79.20
2018-05-13T02:05:43.568Z,78.50
2018-05-13T02:08:09.852Z,78.70
2018-05-13T02:10:36.065Z,78.50
2018-05-13T02:13:03.083Z,78.70
2018-05-13T02:15:29.278Z,78.00
2018-05-13T02:17:56.277Z,79.00
2018-05-13T02:20:22.466Z,78.00
2018-05-13T02:22:49.428Z,78.70
2018-05-13T02:25:16.367Z,78.90
2018-05-13T02:27:43.381Z,78.60
2018-05-13T02:30:09.601Z,78.90
2018-05-13T02:32:35.901Z,78.60
2018-05-13T02:35:02.872Z,79.10
2018-05-13T02:37:29.148Z,78.70
2018-05-13T02:39:55.393Z,77.90
2018-05-13T02:42:21.992Z,77.50
2018-05-13T02:44:48.968Z,77.20
2018-05-13T02:47:15.233Z,77.90
2018-05-13T02:49:41.893Z,77.40
2018-05-13T02:52:08.918Z,78.00
2018-05-13T02:54:35.188Z,77.60
2018-05-13T02:57:02.143Z,78.50
2018-05-13T02:59:29.148Z,77.80
2018-05-13T03:01:55.378Z,77.50
2018-05-13T03:04:22.013Z,77.00
2018-05-13T03:06:48.275Z,77.40
2018-05-13T03:09:14.509Z,77.20
2018-05-13T03:11:40.787Z,77.20
2018-05-13T03:14:07.832Z,79.00
2018-05-13T03:16:34.806Z,79.60
2018-05-13T03:19:01.147Z,78.20
2018-05-13T03:21:27.738Z,78.30
2018-05-13T03:23:54.007Z,78.20
2018-05-13T03:26:21.004Z,78.80
2018-05-13T03:28:47.276Z,78.50
2018-05-13T03:31:13.557Z,78.60
2018-05-13T03:33:39.804Z,79.50
2018-05-13T03:36:06.072Z,80.10
2018-05-13T03:38:32.342Z,79.60
2018-05-13T03:40:59.318Z,79.90
2018-05-13T03:43:25.532Z,78.80
2018-05-13T03:45:52.512Z,79.50
2018-05-13T03:48:18.752Z,79.10
2018-05-13T03:50:45.749Z,79.50
2018-05-13T03:53:12.022Z,79.60
2018-05-13T03:55:38.636Z,80.30
2018-05-13T03:58:05.627Z,80.70
2018-05-13T04:00:31.981Z,80.30
2018-05-13T04:02:58.229Z,80.90
2018-05-13T04:05:25.248Z,81.40
2018-05-13T04:11:15.547Z,82.40
2018-05-13T04:13:53.862Z,82.10
2018-05-13T04:16:20.532Z,81.60
2018-05-13T04:18:47.488Z,81.80
2018-05-13T04:21:13.741Z,82.50
2018-05-13T04:23:39.989Z,82.30
2018-05-13T04:26:06.638Z,83.30
2018-05-13T04:28:33.268Z,83.50
2018-05-13T04:31:00.299Z,83.30
2018-05-13T04:33:26.544Z,82.70
2018-05-13T04:35:52.787Z,82.20
2018-05-13T04:38:19.002Z,82.20
2018-05-13T04:40:45.224Z,82.10
2018-05-13T04:43:11.507Z,82.10
2018-05-13T04:45:38.462Z,82.90
2018-05-13T04:48:05.477Z,82.60
2018-05-13T04:50:32.457Z,81.70
2018-05-13T04:52:58.691Z,81.40
2018-05-13T04:55:24.969Z,82.10
2018-05-13T04:57:51.222Z,82.70
2018-05-13T05:00:17.491Z,82.70
2018-05-13T05:02:44.111Z,82.40
2018-05-13T05:05:10.372Z,83.20
2018-05-13T05:07:36.617Z,83.00
2018-05-13T05:10:02.917Z,82.60
2018-05-13T05:12:29.878Z,83.50
2018-05-13T05:17:25.878Z,83.70
2018-05-13T05:19:52.918Z,83.50
2018-05-13T05:22:19.889Z,84.20
2018-05-13T05:24:46.088Z,82.10
2018-05-13T05:27:12.335Z,82.50
2018-05-13T05:29:38.982Z,82.70
2018-05-13T05:32:05.991Z,82.80
2018-05-13T05:34:32.971Z,81.60
2018-05-13T05:36:59.228Z,81.90
2018-05-13T05:39:26.188Z,81.50
2018-05-13T05:41:53.186Z,81.60
2018-05-13T05:44:20.140Z,81.60
2018-05-13T05:46:46.371Z,80.40
2018-05-13T05:49:13.364Z,81.10
2018-05-13T05:51:40.012Z,81.00
2018-05-13T05:54:07.008Z,81.00
2018-05-13T05:56:34.042Z,80.90
2018-05-13T05:59:00.298Z,81.40
2018-05-13T06:01:27.641Z,81.40
2018-05-13T06:03:53.889Z,81.10
2018-05-13T06:06:20.539Z,80.60
2018-05-13T06:08:46.835Z,80.50
2018-05-13T06:11:13.824Z,81.70
2018-05-13T06:13:41.187Z,82.10
2018-05-13T06:16:07.784Z,82.20
2018-05-13T06:18:34.788Z,82.70
2018-05-13T06:21:01.053Z,82.70
2018-05-13T06:23:27.355Z,82.10
2018-05-13T06:25:54.025Z,84.40
2018-05-13T06:28:20.242Z,84.50
2018-05-13T06:30:46.497Z,85.10
2018-05-13T06:33:12.723Z,85.70
2018-05-13T06:35:39.370Z,84.60
2018-05-13T06:38:05.993Z,85.40
2018-05-13T06:40:32.640Z,86.00
2018-05-13T06:42:58.889Z,85.30
2018-05-13T06:45:25.185Z,84.60
2018-05-13T06:47:52.204Z,87.70
2018-05-13T06:50:18.477Z,86.50
2018-05-13T06:52:44.775Z,86.30
2018-05-13T06:55:11.495Z,86.60
2018-05-13T06:57:38.168Z,85.50
2018-05-13T07:00:04.428Z,84.10
2018-05-13T07:02:31.069Z,82.70
2018-05-13T07:04:58.039Z,84.10
2018-05-13T07:07:24.692Z,83.60
2018-05-13T07:09:50.988Z,82.80
2018-05-13T07:12:17.660Z,83.20
2018-05-13T07:14:43.884Z,83.10
2018-05-13T07:17:11.003Z,82.40
2018-05-13T07:19:37.713Z,82.00
2018-05-13T07:22:03.985Z,84.50
2018-05-13T07:24:30.313Z,81.80
2018-05-13T07:26:56.540Z,81.30
2018-05-13T07:29:23.189Z,81.80
2018-05-13T07:31:49.440Z,82.80
2018-05-13T07:34:16.125Z,81.50
2018-05-13T07:36:43.121Z,82.20
2018-05-13T07:39:09.739Z,81.30
2018-05-13T07:41:36.030Z,82.00
2018-05-13T07:44:02.309Z,82.00
2018-05-13T07:46:28.930Z,80.30
2018-05-13T07:48:55.953Z,79.80
2018-05-13T07:51:22.163Z,78.70
2018-05-13T07:53:48.409Z,82.20
2018-05-13T07:56:14.644Z,80.00
2018-05-13T07:58:40.956Z,79.80
2018-05-13T08:01:07.220Z,78.30
2018-05-13T08:03:33.491Z,81.00
2018-05-13T08:05:59.754Z,77.80
2018-05-13T08:08:26.796Z,78.70
2018-05-13T08:10:53.800Z,79.20
2018-05-13T08:13:20.100Z,77.10
2018-05-13T08:15:46.351Z,78.10
2018-05-13T08:18:12.641Z,79.50
2018-05-13T08:20:38.901Z,79.50
2018-05-13T08:23:05.905Z,79.20
2018-05-13T08:25:32.158Z,78.90
2018-05-13T08:27:58.381Z,79.00
2018-05-13T08:30:25.413Z,79.20
2018-05-13T08:32:51.643Z,80.40
2018-05-13T08:35:17.926Z,80.50
2018-05-13T08:37:44.199Z,80.80
2018-05-13T08:40:10.845Z,80.10
2018-05-13T08:42:37.099Z,79.50
2018-05-13T08:45:03.383Z,78.10
2018-05-13T08:47:30.369Z,79.20
2018-05-13T08:49:56.643Z,79.20
2018-05-13T08:52:22.925Z,78.20
2018-05-13T08:54:49.952Z,77.90
2018-05-13T08:57:16.209Z,79.50
2018-05-13T08:59:53.174Z,79.50
2018-05-13T09:02:19.416Z,77.10
2018-05-13T09:04:46.378Z,78.50
2018-05-13T09:07:13.389Z,79.70
2018-05-13T09:09:39.683Z,80.70
2018-05-13T09:12:06.340Z,78.40
2018-05-13T09:14:32.585Z,78.90
2018-05-13T09:16:58.814Z,78.70
2018-05-13T09:19:25.042Z,80.60
2018-05-13T09:21:51.681Z,78.90
2018-05-13T09:24:17.961Z,81.10
2018-05-13T09:26:44.201Z,80.50
2018-05-13T09:29:10.458Z,81.10
2018-05-13T09:31:36.796Z,80.60
2018-05-13T09:34:03.450Z,79.10
2018-05-13T09:36:30.469Z,80.90
2018-05-13T09:38:57.208Z,79.10
2018-05-13T09:41:23.449Z,79.80
2018-05-13T09:43:49.680Z,79.40
2018-05-13T09:46:16.726Z,82.60
2018-05-13T09:48:43.047Z,80.20
2018-05-13T09:51:09.379Z,80.20
2018-05-13T09:53:35.552Z,78.50
2018-05-13T09:56:02.161Z,78.90
2018-05-13T09:58:29.151Z,78.70
2018-05-13T10:00:55.426Z,78.90
2018-05-13T10:03:22.389Z,79.80
2018-05-13T10:05:48.655Z,80.50
2018-05-13T10:08:15.302Z,79.20
2018-05-13T10:10:41.594Z,78.60
2018-05-13T10:13:08.635Z,80.50
2018-05-13T10:15:35.234Z,78.90
2018-05-13T10:18:01.509Z,80.40
2018-05-13T10:20:28.459Z,78.80
2018-05-13T10:22:54.758Z,78.30
2018-05-13T10:25:22.140Z,79.10
2018-05-13T10:27:48.416Z,80.40
2018-05-13T10:30:15.370Z,81.40
2018-05-13T10:32:42.399Z,84.00
2018-05-13T10:35:08.911Z,79.90
2018-05-13T10:37:35.721Z,80.50
2018-05-13T10:40:02.736Z,81.00
2018-05-13T10:42:30.788Z,81.60
2018-05-13T10:44:57.681Z,81.00
2018-05-13T10:47:25.045Z,82.00
2018-05-13T10:49:52.911Z,82.90
2018-05-13T10:52:19.508Z,84.50
2018-05-13T10:54:46.950Z,83.40
2018-05-13T10:57:13.713Z,82.10
2018-05-13T10:59:40.245Z,82.40
2018-05-13T11:02:06.603Z,82.80
2018-05-13T11:04:33.099Z,83.10
2018-05-13T11:06:59.863Z,83.10
2018-05-13T11:09:26.939Z,84.30
2018-05-13T11:11:54.031Z,82.90
2018-05-13T11:14:20.934Z,81.70
2018-05-13T11:16:48.696Z,83.40
2018-05-13T11:19:15.816Z,84.10
2018-05-13T11:21:42.462Z,82.10
2018-05-13T11:24:09.475Z,83.90
2018-05-13T11:26:36.500Z,83.40
2018-05-13T11:29:02.782Z,83.00
2018-05-13T11:31:29.097Z,81.90
2018-05-13T11:33:56.036Z,83.00
2018-05-13T11:36:22.356Z,83.50
2018-05-13T11:38:48.606Z,83.30
2018-05-13T11:41:15.287Z,82.80
2018-05-13T11:43:42.301Z,82.10
2018-05-13T11:46:08.960Z,81.70
2018-05-13T11:48:35.979Z,81.10
2018-05-13T11:51:03.046Z,81.90
2018-05-13T11:53:29.272Z,81.70
2018-05-13T11:55:56.276Z,82.20
2018-05-13T11:58:23.340Z,82.10
2018-05-13T12:00:49.587Z,83.40
2018-05-13T12:03:15.934Z,84.10
2018-05-13T12:08:13.905Z,83.60
2018-05-13T12:10:40.185Z,82.80
2018-05-13T12:13:06.796Z,83.30
2018-05-13T12:15:33.115Z,83.20
2018-05-13T12:17:59.387Z,83.30
2018-05-13T12:20:26.454Z,83.30
2018-05-13T12:22:52.730Z,82.80
2018-05-13T12:25:19.055Z,83.00
2018-05-13T12:27:45.336Z,83.10
2018-05-13T12:30:12.311Z,84.00
2018-05-13T12:32:39.296Z,84.30
2018-05-13T12:35:05.566Z,84.20
2018-05-13T12:37:31.887Z,84.30
2018-05-13T12:39:58.495Z,85.00
2018-05-13T12:42:24.831Z,83.60
2018-05-13T12:44:51.786Z,84.00
2018-05-13T12:47:18.074Z,82.30
2018-05-13T12:49:44.366Z,81.70
2018-05-13T12:52:11.017Z,81.50
2018-05-13T12:54:37.440Z,79.40
2018-05-13T12:57:03.661Z,76.90
2018-05-13T12:59:30.662Z,76.90
2018-05-13T13:01:56.932Z,73.60
2018-05-13T13:04:23.192Z,71.20
2018-05-13T13:06:49.472Z,73.20
2018-05-13T13:09:15.717Z,73.90
2018-05-13T13:11:41.915Z,70.80
2018-05-13T13:14:08.171Z,69.30
2018-05-13T13:16:34.451Z,69.80
2018-05-13T13:19:01.556Z,70.70
2018-05-13T13:21:27.820Z,69.90
2018-05-13T13:23:54.087Z,65.20
2018-05-13T13:26:21.081Z,64.00
2018-05-13T13:28:47.403Z,64.10
2018-05-13T13:31:13.727Z,64.80
2018-05-13T13:33:39.956Z,66.00
2018-05-13T13:36:06.255Z,67.00
2018-05-13T13:38:32.514Z,68.30
2018-05-13T13:40:59.216Z,70.90
2018-05-13T13:43:25.511Z,72.90
2018-05-13T13:45:52.515Z,73.50
2018-05-13T13:48:18.737Z,73.10
2018-05-13T13:50:45.007Z,73.10
2018-05-13T13:53:11.252Z,72.10
2018-05-13T13:55:37.475Z,64.70
2018-05-13T13:58:03.791Z,59.10
2018-05-13T14:00:30.158Z,57.40
2018-05-13T14:02:57.218Z,58.10
2018-05-13T14:05:23.532Z,57.00
2018-05-13T14:07:51.275Z,58.10
2018-05-13T14:10:17.473Z,60.10
2018-05-13T14:12:44.248Z,65.00
2018-05-13T14:15:10.531Z,67.30
2018-05-13T14:17:36.820Z,68.20
2018-05-13T14:20:03.846Z,70.80
2018-05-13T14:22:30.086Z,71.10
2018-05-13T14:24:57.056Z,72.50
2018-05-13T14:27:23.320Z,71.30
2018-05-13T14:29:50.345Z,73.30
2018-05-13T14:32:16.613Z,73.60
2018-05-13T14:34:43.287Z,75.90
2018-05-13T14:37:09.545Z,76.60
2018-05-13T14:39:36.562Z,77.90
2018-05-13T14:42:02.807Z,75.30
2018-05-13T14:44:29.116Z,75.00
2018-05-13T14:46:55.347Z,75.30
2018-05-13T14:49:22.406Z,75.30
2018-05-13T14:51:49.291Z,75.20
2018-05-13T14:54:16.338Z,75.80
2018-05-13T14:56:43.362Z,76.80
2018-05-13T14:59:09.647Z,76.20
2018-05-13T15:01:36.595Z,78.50
2018-05-13T15:04:04.150Z,79.90
2018-05-13T15:06:30.796Z,79.40
2018-05-13T15:08:57.443Z,79.50
2018-05-13T15:11:24.471Z,81.30
2018-05-13T15:13:50.723Z,81.70
2018-05-13T15:16:17.428Z,82.20
2018-05-13T15:18:44.048Z,82.10
2018-05-13T15:21:10.672Z,83.10
2018-05-13T15:23:37.681Z,82.90
2018-05-13T15:26:04.000Z,82.90
2018-05-13T15:28:31.017Z,83.20
2018-05-13T15:30:58.036Z,84.10
2018-05-13T15:33:24.317Z,83.50
2018-05-13T15:35:50.988Z,84.10
2018-05-13T15:38:17.646Z,84.20
2018-05-13T15:40:43.931Z,84.70
2018-05-13T15:43:11.081Z,85.90
2018-05-13T15:45:38.024Z,85.60
2018-05-13T15:48:05.084Z,85.80
2018-05-13T15:50:31.761Z,85.40
2018-05-13T15:52:58.478Z,85.80
2018-05-13T15:55:25.470Z,86.90
2018-05-13T15:57:51.823Z,86.50
2018-05-13T16:00:18.112Z,86.70
2018-05-13T16:02:44.833Z,86.90
2018-05-13T16:05:11.107Z,87.40
2018-05-13T16:07:37.408Z,87.10
2018-05-13T16:10:03.714Z,87.50
2018-05-13T16:12:30.017Z,87.00
2018-05-13T16:14:56.694Z,88.00
2018-05-13T16:17:24.077Z,88.30
2018-05-13T16:19:50.622Z,88.00
2018-05-13T16:22:16.912Z,87.40
2018-05-13T16:24:43.958Z,87.40
2018-05-13T16:27:10.238Z,87.50
2018-05-13T16:29:38.218Z,88.00
2018-05-13T16:32:05.654Z,88.50
2018-05-13T16:34:32.997Z,88.80
2018-05-13T16:36:59.908Z,88.50
2018-05-13T16:39:26.878Z,87.80
2018-05-13T16:41:54.692Z,89.00
2018-05-13T16:44:21.768Z,88.60
2018-05-13T16:46:48.051Z,88.50
2018-05-13T16:49:15.711Z,88.40
2018-05-13T16:51:42.770Z,89.00
2018-05-13T16:54:09.444Z,88.50
2018-05-13T16:56:36.871Z,89.80
2018-05-13T16:59:03.945Z,89.90
2018-05-13T17:01:30.208Z,89.40
2018-05-13T17:03:56.497Z,89.70
2018-05-13T17:06:23.476Z,90.10
2018-05-13T17:08:49.821Z,90.00
2018-05-13T17:11:17.757Z,90.10
2018-05-13T17:13:44.827Z,90.40
2018-05-13T17:16:11.861Z,90.50
2018-05-13T17:18:38.506Z,90.30
2018-05-13T17:21:05.504Z,90.30
2018-05-13T17:23:31.889Z,90.50
2018-05-13T17:25:58.108Z,90.60
2018-05-13T17:28:24.412Z,90.60
2018-05-13T17:30:51.427Z,90.60
2018-05-13T17:33:18.425Z,90.70
2018-05-13T17:35:44.685Z,90.70
2018-05-13T17:38:10.968Z,90.80
2018-05-13T17:40:38.023Z,91.20
2018-05-13T17:43:05.033Z,91.20
2018-05-13T17:45:32.234Z,91.20
2018-05-13T17:47:58.559Z,91.20
2018-05-13T17:50:25.618Z,91.60
2018-05-13T17:52:52.618Z,91.60
2018-05-13T17:55:19.614Z,91.60
2018-05-13T17:57:46.306Z,91.30
2018-05-13T18:00:12.592Z,91.50
2018-05-13T18:02:38.848Z,91.50
2018-05-13T18:05:05.875Z,92.00
2018-05-13T18:07:32.259Z,91.80
2018-05-13T18:09:58.545Z,91.90
2018-05-13T18:12:24.872Z,92.00
2018-05-13T18:14:51.187Z,92.20
2018-05-13T18:17:18.757Z,92.40
2018-05-13T18:19:45.085Z,93.00
2018-05-13T18:22:11.417Z,92.70
2018-05-13T18:24:37.771Z,92.80
2018-05-13T18:27:04.705Z,93.40
2018-05-13T18:29:31.193Z,93.10
2018-05-13T18:31:57.508Z,93.20
2018-05-13T18:34:23.812Z,93.60
2018-05-13T18:36:52.665Z,93.80
2018-05-13T18:39:20.093Z,93.80
2018-05-13T18:41:46.371Z,94.40
2018-05-13T18:44:14.429Z,94.50
2018-05-13T18:46:41.297Z,94.40
2018-05-13T18:49:07.593Z,94.60
2018-05-13T18:51:34.308Z,94.70
2018-05-13T18:54:02.804Z,95.00
2018-05-13T18:56:30.232Z,95.20
2018-05-13T18:58:57.950Z,95.40
2018-05-13T19:01:25.869Z,95.10
2018-05-13T19:03:52.854Z,95.10
2018-05-13T19:06:19.389Z,95.10
2018-05-13T19:08:47.064Z,95.40
2018-05-13T19:11:23.224Z,95.10
2018-05-13T19:13:50.702Z,95.80
2018-05-13T19:16:17.080Z,95.00
2018-05-13T19:18:44.290Z,94.90
2018-05-13T19:21:10.564Z,95.10
2018-05-13T19:23:37.603Z,95.40
2018-05-13T19:26:03.883Z,95.40
2018-05-13T19:28:30.145Z,95.20
2018-05-13T19:30:57.678Z,95.10
2018-05-13T19:33:24.653Z,95.40
2018-05-13T19:35:50.963Z,95.40
2018-05-13T19:38:18.223Z,95.50
2018-05-13T19:40:44.733Z,95.60
2018-05-13T19:43:11.570Z,95.00
2018-05-13T19:45:38.277Z,95.40
2018-05-13T19:48:06.107Z,95.50
2018-05-13T19:50:33.893Z,95.60
2018-05-13T19:53:02.281Z,95.30
2018-05-13T19:55:29.269Z,95.20
2018-05-13T19:57:57.339Z,95.60
2018-05-13T20:00:24.508Z,95.50
2018-05-13T20:02:51.896Z,95.40
2018-05-13T20:05:19.652Z,95.60
2018-05-13T20:07:45.968Z,95.50
2018-05-13T20:10:12.272Z,95.50
2018-05-13T20:12:39.698Z,95.40
2018-05-13T20:15:06.707Z,95.70
2018-05-13T20:17:34.925Z,95.60
2018-05-13T20:20:03.183Z,95.70
2018-05-13T20:22:31.066Z,95.80
2018-05-13T20:24:57.809Z,95.60
2018-05-13T20:27:24.884Z,95.50
2018-05-13T20:29:52.846Z,95.50
2018-05-13T20:32:19.098Z,95.60
2018-05-13T20:34:46.778Z,95.90
2018-05-13T20:37:13.405Z,95.50
2018-05-13T20:39:39.668Z,95.60
2018-05-13T20:42:06.308Z,95.60
2018-05-13T20:44:32.609Z,95.70
2018-05-13T20:46:59.044Z,95.80
2018-05-13T20:49:25.452Z,96.30
2018-05-13T20:51:52.084Z,96.10
2018-05-13T20:54:18.378Z,96.00
2018-05-13T20:56:45.404Z,96.10
2018-05-13T20:59:12.434Z,96.60
2018-05-13T21:01:39.366Z,96.20
2018-05-13T21:04:05.616Z,96.20
2018-05-13T21:06:31.925Z,96.20
2018-05-13T21:08:58.184Z,96.20
2018-05-13T21:11:24.483Z,96.10
2018-05-13T21:13:50.739Z,96.50
2018-05-13T21:16:17.031Z,96.90
2018-05-13T21:18:44.330Z,96.50
2018-05-13T21:21:12.405Z,96.20
2018-05-13T21:23:38.650Z,96.10
2018-05-13T21:26:05.389Z,96.70
2018-05-13T21:28:33.489Z,97.00
2018-05-13T21:30:59.791Z,96.30
2018-05-13T21:33:26.544Z,96.40
2018-05-13T21:35:57.560Z,96.20
2018-05-13T21:38:24.883Z,96.40
2018-05-13T21:40:51.149Z,96.40
2018-05-13T21:43:18.138Z,97.10
2018-05-13T21:45:44.935Z,96.50
2018-05-13T21:48:11.831Z,96.50
2018-05-13T21:50:38.841Z,96.60
2018-05-13T21:53:05.083Z,96.60
2018-05-13T21:55:32.123Z,96.90
2018-05-13T21:57:58.383Z,96.90
2018-05-13T22:00:25.375Z,96.90
2018-05-13T22:02:52.364Z,96.90
2018-05-13T22:05:18.644Z,97.10
2018-05-13T22:07:44.893Z,96.40
2018-05-13T22:10:11.149Z,95.80
2018-05-13T22:12:37.743Z,95.80
2018-05-13T22:15:04.704Z,95.70
2018-05-13T22:17:31.783Z,95.30
2018-05-13T22:19:58.772Z,96.40
2018-05-13T22:22:24.992Z,95.60
2018-05-13T22:24:51.984Z,95.90
2018-05-13T22:27:18.960Z,95.40
2018-05-13T22:29:45.954Z,95.40
2018-05-13T22:32:12.528Z,95.30
2018-05-13T22:34:39.528Z,95.60
2018-05-13T22:37:06.124Z,95.70
2018-05-13T22:39:33.179Z,95.90
2018-05-13T22:42:00.165Z,96.50
2018-05-13T22:44:33.125Z,96.10
2018-05-13T22:46:59.808Z,95.70
2018-05-13T22:49:26.039Z,96.30
2018-05-13T22:51:52.284Z,95.30
2018-05-13T22:54:20.506Z,95.30
2018-05-13T22:56:47.506Z,96.10
2018-05-13T22:59:13.734Z,95.60
2018-05-13T23:01:40.033Z,95.90
2018-05-13T23:04:07.145Z,95.70
2018-05-13T23:06:33.374Z,95.70
2018-05-13T23:08:59.634Z,95.10
2018-05-13T23:11:26.045Z,95.50
2018-05-13T23:13:52.320Z,95.10
2018-05-13T23:16:19.305Z,95.00
2018-05-13T23:18:45.915Z,95.30
2018-05-13T23:21:13.678Z,95.50
2018-05-13T23:23:39.999Z,95.70
2018-05-13T23:26:06.224Z,95.70
2018-05-13T23:28:32.555Z,95.60
2018-05-13T23:30:58.714Z,95.50
2018-05-13T23:33:24.941Z,95.50
2018-05-13T23:35:51.184Z,95.70
2018-05-13T23:38:17.437Z,96.00
2018-05-13T23:40:43.680Z,96.00
2018-05-13T23:43:10.719Z,96.20
2018-05-13T23:45:37.705Z,95.90
2018-05-13T23:48:04.665Z,96.30
2018-05-13T23:50:30.916Z,96.00
2018-05-13T23:52:57.188Z,95.80
2018-05-13T23:55:23.420Z,96.00
2018-05-13T23:57:49.681Z,96.20
